sensor_id;sensor_type;location;lat;lon;timestamp;P1;durP1;ratioP1;P2;durP2;ratioP2
1885;SDS011;943;51.568;6.998;2023-04-15T00:01:45;12.20;;;7.47;;
1885;SDS011;943;51.568;6.998;2023-04-15T00:04:13;13.73;;;8.13;;
1885;SDS011;943;51.568;6.998;2023-04-15T00:06:42;13.77;;;8.43;;
1885;SDS011;943;51.568;6.998;2023-04-15T00:09:20;13.93;;;8.97;;
1885;SDS011;943;51.568;6.998;2023-04-15T00:11:50;16.00;;;8.83;;
1885;SDS011;943;51.568;6.998;2023-04-15T00:14:19;12.23;;;7.93;;
1885;SDS011;943;51.568;6.998;2023-04-15T00:16:48;14.03;;;9.60;;
1885;SDS011;943;51.568;6.998;2023-04-15T00:19:22;15.07;;;8.80;;
1885;SDS011;943;51.568;6.998;2023-04-15T00:21:51;11.77;;;7.90;;
1885;SDS011;943;51.568;6.998;2023-04-15T00:24:20;11.00;;;7.90;;
1885;SDS011;943;51.568;6.998;2023-04-15T00:26:50;10.87;;;7.60;;
1885;SDS011;943;51.568;6.998;2023-04-15T00:29:19;12.47;;;8.10;;
1885;SDS011;943;51.568;6.998;2023-04-15T00:31:47;11.63;;;7.93;;
1885;SDS011;943;51.568;6.998;2023-04-15T00:34:15;10.87;;;7.67;;
1885;SDS011;943;51.568;6.998;2023-04-15T00:36:43;13.17;;;8.50;;
1885;SDS011;943;51.568;6.998;2023-04-15T00:39:10;12.63;;;8.50;;
1885;SDS011;943;51.568;6.998;2023-04-15T00:41:38;11.77;;;7.47;;
1885;SDS011;943;51.568;6.998;2023-04-15T00:44:07;11.60;;;8.70;;
1885;SDS011;943;51.568;6.998;2023-04-15T00:46:35;11.80;;;8.27;;
1885;SDS011;943;51.568;6.998;2023-04-15T00:49:05;11.63;;;9.17;;
1885;SDS011;943;51.568;6.998;2023-04-15T00:51:33;11.63;;;8.77;;
1885;SDS011;943;51.568;6.998;2023-04-15T00:54:06;10.53;;;7.70;;
1885;SDS011;943;51.568;6.998;2023-04-15T00:56:34;11.23;;;8.53;;
1885;SDS011;943;51.568;6.998;2023-04-15T00:59:05;16.73;;;8.80;;
1885;SDS011;943;51.568;6.998;2023-04-15T01:01:36;12.60;;;8.07;;
1885;SDS011;943;51.568;6.998;2023-04-15T01:04:04;11.70;;;8.27;;
1885;SDS011;943;51.568;6.998;2023-04-15T01:06:32;12.27;;;8.50;;
1885;SDS011;943;51.568;6.998;2023-04-15T01:09:00;9.43;;;7.80;;
1885;SDS011;943;51.568;6.998;2023-04-15T01:11:29;11.50;;;8.43;;
1885;SDS011;943;51.568;6.998;2023-04-15T01:13:59;11.30;;;8.40;;
1885;SDS011;943;51.568;6.998;2023-04-15T01:16:29;13.10;;;8.43;;
1885;SDS011;943;51.568;6.998;2023-04-15T01:18:57;12.97;;;8.20;;
1885;SDS011;943;51.568;6.998;2023-04-15T01:21:25;9.37;;;6.90;;
1885;SDS011;943;51.568;6.998;2023-04-15T01:23:53;11.50;;;8.10;;
1885;SDS011;943;51.568;6.998;2023-04-15T01:26:23;13.03;;;8.50;;
1885;SDS011;943;51.568;6.998;2023-04-15T01:28:51;12.90;;;7.87;;
1885;SDS011;943;51.568;6.998;2023-04-15T01:31:20;11.10;;;8.40;;
1885;SDS011;943;51.568;6.998;2023-04-15T01:33:48;11.97;;;7.83;;
1885;SDS011;943;51.568;6.998;2023-04-15T01:36:16;10.03;;;7.63;;
1885;SDS011;943;51.568;6.998;2023-04-15T01:38:44;11.40;;;7.80;;
1885;SDS011;943;51.568;6.998;2023-04-15T01:41:13;11.87;;;8.30;;
1885;SDS011;943;51.568;6.998;2023-04-15T01:43:40;12.57;;;8.23;;
1885;SDS011;943;51.568;6.998;2023-04-15T01:46:08;11.23;;;8.73;;
1885;SDS011;943;51.568;6.998;2023-04-15T01:48:36;12.27;;;8.00;;
1885;SDS011;943;51.568;6.998;2023-04-15T01:51:04;9.10;;;7.90;;
1885;SDS011;943;51.568;6.998;2023-04-15T01:53:32;12.20;;;8.63;;
1885;SDS011;943;51.568;6.998;2023-04-15T01:56:00;9.10;;;7.30;;
1885;SDS011;943;51.568;6.998;2023-04-15T01:58:29;11.00;;;8.53;;
1885;SDS011;943;51.568;6.998;2023-04-15T02:00:57;10.60;;;8.20;;
1885;SDS011;943;51.568;6.998;2023-04-15T02:03:25;10.70;;;8.20;;
1885;SDS011;943;51.568;6.998;2023-04-15T02:05:55;11.20;;;8.80;;
1885;SDS011;943;51.568;6.998;2023-04-15T02:08:23;9.87;;;8.20;;
1885;SDS011;943;51.568;6.998;2023-04-15T02:10:51;9.10;;;7.27;;
1885;SDS011;943;51.568;6.998;2023-04-15T02:13:18;14.40;;;8.73;;
1885;SDS011;943;51.568;6.998;2023-04-15T02:15:47;13.50;;;9.73;;
1885;SDS011;943;51.568;6.998;2023-04-15T02:18:18;11.03;;;8.27;;
1885;SDS011;943;51.568;6.998;2023-04-15T02:20:46;10.00;;;8.23;;
1885;SDS011;943;51.568;6.998;2023-04-15T02:23:14;13.70;;;8.77;;
1885;SDS011;943;51.568;6.998;2023-04-15T02:25:42;14.30;;;7.77;;
1885;SDS011;943;51.568;6.998;2023-04-15T02:28:20;14.73;;;8.90;;
1885;SDS011;943;51.568;6.998;2023-04-15T02:30:48;16.33;;;9.00;;
1885;SDS011;943;51.568;6.998;2023-04-15T02:33:19;13.10;;;8.47;;
1885;SDS011;943;51.568;6.998;2023-04-15T02:35:47;11.70;;;7.97;;
1885;SDS011;943;51.568;6.998;2023-04-15T02:38:15;14.30;;;9.50;;
1885;SDS011;943;51.568;6.998;2023-04-15T02:40:43;13.73;;;9.03;;
1885;SDS011;943;51.568;6.998;2023-04-15T02:43:11;13.50;;;9.80;;
1885;SDS011;943;51.568;6.998;2023-04-15T02:45:39;12.67;;;8.87;;
1885;SDS011;943;51.568;6.998;2023-04-15T02:48:09;11.43;;;8.70;;
1885;SDS011;943;51.568;6.998;2023-04-15T02:50:37;13.03;;;8.60;;
1885;SDS011;943;51.568;6.998;2023-04-15T02:53:08;13.63;;;10.70;;
1885;SDS011;943;51.568;6.998;2023-04-15T02:55:36;10.70;;;7.73;;
1885;SDS011;943;51.568;6.998;2023-04-15T02:58:03;12.87;;;8.43;;
1885;SDS011;943;51.568;6.998;2023-04-15T03:00:31;13.23;;;8.90;;
1885;SDS011;943;51.568;6.998;2023-04-15T03:03:01;14.73;;;9.97;;
1885;SDS011;943;51.568;6.998;2023-04-15T03:05:32;13.43;;;9.13;;
1885;SDS011;943;51.568;6.998;2023-04-15T03:08:02;17.27;;;9.33;;
1885;SDS011;943;51.568;6.998;2023-04-15T03:10:30;11.70;;;9.33;;
1885;SDS011;943;51.568;6.998;2023-04-15T03:13:03;12.93;;;9.50;;
1885;SDS011;943;51.568;6.998;2023-04-15T03:15:31;16.40;;;10.53;;
1885;SDS011;943;51.568;6.998;2023-04-15T03:17:59;13.40;;;9.43;;
1885;SDS011;943;51.568;6.998;2023-04-15T03:20:27;12.70;;;9.33;;
1885;SDS011;943;51.568;6.998;2023-04-15T03:22:55;14.03;;;10.00;;
1885;SDS011;943;51.568;6.998;2023-04-15T03:25:23;12.20;;;9.17;;
1885;SDS011;943;51.568;6.998;2023-04-15T03:27:51;12.90;;;10.20;;
1885;SDS011;943;51.568;6.998;2023-04-15T03:30:19;12.70;;;9.43;;
1885;SDS011;943;51.568;6.998;2023-04-15T03:32:47;14.20;;;11.40;;
1885;SDS011;943;51.568;6.998;2023-04-15T03:35:15;14.60;;;10.83;;
1885;SDS011;943;51.568;6.998;2023-04-15T03:37:43;13.87;;;11.30;;
1885;SDS011;943;51.568;6.998;2023-04-15T03:40:10;14.67;;;10.97;;
1885;SDS011;943;51.568;6.998;2023-04-15T03:42:38;13.30;;;9.90;;
1885;SDS011;943;51.568;6.998;2023-04-15T03:45:07;15.37;;;11.23;;
1885;SDS011;943;51.568;6.998;2023-04-15T03:47:35;16.07;;;11.80;;
1885;SDS011;943;51.568;6.998;2023-04-15T03:50:03;18.37;;;9.80;;
1885;SDS011;943;51.568;6.998;2023-04-15T03:52:32;17.20;;;10.20;;
1885;SDS011;943;51.568;6.998;2023-04-15T03:55:01;14.63;;;10.07;;
1885;SDS011;943;51.568;6.998;2023-04-15T03:57:29;12.40;;;9.70;;
1885;SDS011;943;51.568;6.998;2023-04-15T03:59:56;16.37;;;11.00;;
1885;SDS011;943;51.568;6.998;2023-04-15T04:02:24;15.20;;;10.90;;
1885;SDS011;943;51.568;6.998;2023-04-15T04:04:53;18.40;;;10.50;;
1885;SDS011;943;51.568;6.998;2023-04-15T04:07:22;18.50;;;12.10;;
1885;SDS011;943;51.568;6.998;2023-04-15T04:09:50;16.60;;;11.57;;
1885;SDS011;943;51.568;6.998;2023-04-15T04:12:18;15.43;;;11.33;;
1885;SDS011;943;51.568;6.998;2023-04-15T04:14:46;14.57;;;11.40;;
1885;SDS011;943;51.568;6.998;2023-04-15T04:17:14;14.27;;;10.90;;
1885;SDS011;943;51.568;6.998;2023-04-15T04:19:41;14.33;;;11.00;;
1885;SDS011;943;51.568;6.998;2023-04-15T04:22:09;19.23;;;12.13;;
1885;SDS011;943;51.568;6.998;2023-04-15T04:24:36;14.03;;;10.90;;
1885;SDS011;943;51.568;6.998;2023-04-15T04:27:04;17.10;;;11.30;;
1885;SDS011;943;51.568;6.998;2023-04-15T04:29:32;14.00;;;10.37;;
1885;SDS011;943;51.568;6.998;2023-04-15T04:31:59;16.77;;;11.87;;
1885;SDS011;943;51.568;6.998;2023-04-15T04:34:27;17.03;;;11.93;;
1885;SDS011;943;51.568;6.998;2023-04-15T04:36:55;16.33;;;11.70;;
1885;SDS011;943;51.568;6.998;2023-04-15T04:39:23;16.97;;;12.37;;
1885;SDS011;943;51.568;6.998;2023-04-15T04:41:51;17.80;;;12.77;;
1885;SDS011;943;51.568;6.998;2023-04-15T04:44:19;16.70;;;12.90;;
1885;SDS011;943;51.568;6.998;2023-04-15T04:46:47;15.60;;;11.97;;
1885;SDS011;943;51.568;6.998;2023-04-15T04:49:15;19.07;;;13.30;;
1885;SDS011;943;51.568;6.998;2023-04-15T04:51:42;15.83;;;12.03;;
1885;SDS011;943;51.568;6.998;2023-04-15T04:54:10;16.83;;;12.80;;
1885;SDS011;943;51.568;6.998;2023-04-15T04:56:38;16.40;;;11.67;;
1885;SDS011;943;51.568;6.998;2023-04-15T04:59:06;17.47;;;12.50;;
1885;SDS011;943;51.568;6.998;2023-04-15T05:01:33;18.40;;;12.40;;
1885;SDS011;943;51.568;6.998;2023-04-15T05:04:01;19.03;;;13.83;;
1885;SDS011;943;51.568;6.998;2023-04-15T05:06:31;20.53;;;13.90;;
1885;SDS011;943;51.568;6.998;2023-04-15T05:08:59;17.17;;;13.00;;
1885;SDS011;943;51.568;6.998;2023-04-15T05:11:29;20.67;;;14.10;;
1885;SDS011;943;51.568;6.998;2023-04-15T05:13:56;20.23;;;13.33;;
1885;SDS011;943;51.568;6.998;2023-04-15T05:16:27;17.80;;;12.73;;
1885;SDS011;943;51.568;6.998;2023-04-15T05:18:54;19.67;;;14.43;;
1885;SDS011;943;51.568;6.998;2023-04-15T05:21:22;18.43;;;13.40;;
1885;SDS011;943;51.568;6.998;2023-04-15T05:23:50;23.10;;;14.00;;
1885;SDS011;943;51.568;6.998;2023-04-15T05:26:18;19.87;;;15.50;;
1885;SDS011;943;51.568;6.998;2023-04-15T05:28:47;21.20;;;14.30;;
1885;SDS011;943;51.568;6.998;2023-04-15T05:31:15;19.37;;;14.43;;
1885;SDS011;943;51.568;6.998;2023-04-15T05:33:43;22.90;;;15.30;;
1885;SDS011;943;51.568;6.998;2023-04-15T05:36:10;24.13;;;14.90;;
1885;SDS011;943;51.568;6.998;2023-04-15T05:38:38;20.23;;;15.13;;
1885;SDS011;943;51.568;6.998;2023-04-15T05:41:06;20.43;;;15.60;;
1885;SDS011;943;51.568;6.998;2023-04-15T05:43:34;21.80;;;15.97;;
1885;SDS011;943;51.568;6.998;2023-04-15T05:46:02;18.90;;;14.83;;
1885;SDS011;943;51.568;6.998;2023-04-15T05:48:30;20.10;;;14.00;;
1885;SDS011;943;51.568;6.998;2023-04-15T05:50:58;18.23;;;13.10;;
1885;SDS011;943;51.568;6.998;2023-04-15T05:53:27;18.03;;;14.70;;
1885;SDS011;943;51.568;6.998;2023-04-15T05:55:54;18.23;;;13.10;;
1885;SDS011;943;51.568;6.998;2023-04-15T05:58:22;19.00;;;13.00;;
1885;SDS011;943;51.568;6.998;2023-04-15T06:00:50;19.03;;;13.23;;
1885;SDS011;943;51.568;6.998;2023-04-15T06:03:18;17.37;;;12.73;;
1885;SDS011;943;51.568;6.998;2023-04-15T06:05:45;18.17;;;14.13;;
1885;SDS011;943;51.568;6.998;2023-04-15T06:08:13;20.80;;;13.80;;
1885;SDS011;943;51.568;6.998;2023-04-15T06:10:41;17.70;;;12.37;;
1885;SDS011;943;51.568;6.998;2023-04-15T06:13:09;18.43;;;13.17;;
1885;SDS011;943;51.568;6.998;2023-04-15T06:15:36;21.03;;;12.90;;
1885;SDS011;943;51.568;6.998;2023-04-15T06:18:04;17.63;;;13.23;;
1885;SDS011;943;51.568;6.998;2023-04-15T06:20:31;16.80;;;12.50;;
1885;SDS011;943;51.568;6.998;2023-04-15T06:22:59;17.17;;;12.80;;
1885;SDS011;943;51.568;6.998;2023-04-15T06:25:27;18.47;;;13.53;;
1885;SDS011;943;51.568;6.998;2023-04-15T06:27:55;19.93;;;13.40;;
1885;SDS011;943;51.568;6.998;2023-04-15T06:30:22;21.80;;;11.93;;
1885;SDS011;943;51.568;6.998;2023-04-15T06:32:50;18.77;;;12.60;;
1885;SDS011;943;51.568;6.998;2023-04-15T06:35:18;19.17;;;13.80;;
1885;SDS011;943;51.568;6.998;2023-04-15T06:37:45;15.70;;;11.70;;
1885;SDS011;943;51.568;6.998;2023-04-15T06:40:13;17.03;;;12.27;;
1885;SDS011;943;51.568;6.998;2023-04-15T06:42:41;16.30;;;12.20;;
1885;SDS011;943;51.568;6.998;2023-04-15T06:45:08;17.43;;;12.00;;
1885;SDS011;943;51.568;6.998;2023-04-15T06:47:37;16.77;;;10.90;;
1885;SDS011;943;51.568;6.998;2023-04-15T06:50:05;15.83;;;9.73;;
1885;SDS011;943;51.568;6.998;2023-04-15T06:52:34;17.93;;;10.47;;
1885;SDS011;943;51.568;6.998;2023-04-15T06:55:02;16.43;;;11.10;;
1885;SDS011;943;51.568;6.998;2023-04-15T06:57:31;11.10;;;8.90;;
1885;SDS011;943;51.568;6.998;2023-04-15T07:00:00;11.70;;;9.30;;
1885;SDS011;943;51.568;6.998;2023-04-15T07:02:31;13.20;;;9.43;;
1885;SDS011;943;51.568;6.998;2023-04-15T07:04:59;13.57;;;9.00;;
1885;SDS011;943;51.568;6.998;2023-04-15T07:07:27;15.27;;;9.57;;
1885;SDS011;943;51.568;6.998;2023-04-15T07:09:55;15.00;;;9.03;;
1885;SDS011;943;51.568;6.998;2023-04-15T07:12:22;13.30;;;9.83;;
1885;SDS011;943;51.568;6.998;2023-04-15T07:14:51;12.60;;;9.83;;
1885;SDS011;943;51.568;6.998;2023-04-15T07:17:20;14.00;;;10.17;;
1885;SDS011;943;51.568;6.998;2023-04-15T07:19:47;15.07;;;9.33;;
1885;SDS011;943;51.568;6.998;2023-04-15T07:22:15;10.57;;;6.40;;
1885;SDS011;943;51.568;6.998;2023-04-15T07:24:43;11.47;;;9.30;;
1885;SDS011;943;51.568;6.998;2023-04-15T07:27:11;13.93;;;9.80;;
1885;SDS011;943;51.568;6.998;2023-04-15T07:29:38;13.80;;;8.53;;
1885;SDS011;943;51.568;6.998;2023-04-15T07:32:06;10.03;;;7.23;;
1885;SDS011;943;51.568;6.998;2023-04-15T07:34:36;11.03;;;7.60;;
1885;SDS011;943;51.568;6.998;2023-04-15T07:37:09;10.17;;;7.60;;
1885;SDS011;943;51.568;6.998;2023-04-15T07:39:42;9.53;;;6.73;;
1885;SDS011;943;51.568;6.998;2023-04-15T07:42:16;10.90;;;7.10;;
1885;SDS011;943;51.568;6.998;2023-04-15T07:44:50;10.37;;;6.77;;
1885;SDS011;943;51.568;6.998;2023-04-15T07:47:33;11.10;;;7.90;;
1885;SDS011;943;51.568;6.998;2023-04-15T07:50:05;10.87;;;7.17;;
1885;SDS011;943;51.568;6.998;2023-04-15T07:52:51;11.50;;;7.70;;
1885;SDS011;943;51.568;6.998;2023-04-15T07:55:24;14.00;;;9.23;;
1885;SDS011;943;51.568;6.998;2023-04-15T07:58:07;11.73;;;7.90;;
1885;SDS011;943;51.568;6.998;2023-04-15T08:00:39;9.30;;;7.23;;
1885;SDS011;943;51.568;6.998;2023-04-15T08:03:13;6.47;;;5.10;;
1885;SDS011;943;51.568;6.998;2023-04-15T08:05:53;9.00;;;5.20;;
1885;SDS011;943;51.568;6.998;2023-04-15T08:08:26;8.43;;;5.27;;
1885;SDS011;943;51.568;6.998;2023-04-15T08:10:59;7.27;;;5.10;;
1885;SDS011;943;51.568;6.998;2023-04-15T08:13:35;8.40;;;5.37;;
1885;SDS011;943;51.568;6.998;2023-04-15T08:16:16;8.63;;;6.10;;
1885;SDS011;943;51.568;6.998;2023-04-15T08:19:00;18.53;;;6.70;;
1885;SDS011;943;51.568;6.998;2023-04-15T08:21:34;8.40;;;6.80;;
1885;SDS011;943;51.568;6.998;2023-04-15T08:24:11;8.03;;;6.17;;
1885;SDS011;943;51.568;6.998;2023-04-15T08:26:43;10.67;;;7.37;;
1885;SDS011;943;51.568;6.998;2023-04-15T08:29:21;8.37;;;5.77;;
1885;SDS011;943;51.568;6.998;2023-04-15T08:31:54;8.93;;;5.30;;
1885;SDS011;943;51.568;6.998;2023-04-15T08:34:40;8.07;;;6.03;;
1885;SDS011;943;51.568;6.998;2023-04-15T08:37:16;8.13;;;5.80;;
1885;SDS011;943;51.568;6.998;2023-04-15T08:39:44;15.73;;;5.23;;
1885;SDS011;943;51.568;6.998;2023-04-15T08:42:15;10.53;;;5.60;;
1885;SDS011;943;51.568;6.998;2023-04-15T08:44:53;6.67;;;5.50;;
1885;SDS011;943;51.568;6.998;2023-04-15T08:47:22;9.10;;;6.93;;
1885;SDS011;943;51.568;6.998;2023-04-15T08:49:57;7.50;;;5.63;;
1885;SDS011;943;51.568;6.998;2023-04-15T08:52:30;12.03;;;6.60;;
1885;SDS011;943;51.568;6.998;2023-04-15T08:54:58;10.93;;;6.37;;
1885;SDS011;943;51.568;6.998;2023-04-15T08:57:30;10.10;;;7.37;;
1885;SDS011;943;51.568;6.998;2023-04-15T09:00:02;9.00;;;6.93;;
1885;SDS011;943;51.568;6.998;2023-04-15T09:02:32;9.37;;;6.13;;
1885;SDS011;943;51.568;6.998;2023-04-15T09:05:00;7.97;;;5.67;;
1885;SDS011;943;51.568;6.998;2023-04-15T09:07:34;7.20;;;5.50;;
1885;SDS011;943;51.568;6.998;2023-04-15T09:10:03;7.03;;;5.23;;
1885;SDS011;943;51.568;6.998;2023-04-15T09:12:35;7.00;;;5.00;;
1885;SDS011;943;51.568;6.998;2023-04-15T09:15:03;7.20;;;5.33;;
1885;SDS011;943;51.568;6.998;2023-04-15T09:17:40;9.30;;;7.13;;
1885;SDS011;943;51.568;6.998;2023-04-15T09:20:12;8.57;;;6.40;;
1885;SDS011;943;51.568;6.998;2023-04-15T09:22:44;7.43;;;5.83;;
1885;SDS011;943;51.568;6.998;2023-04-15T09:27:59;6.70;;;4.90;;
1885;SDS011;943;51.568;6.998;2023-04-15T09:30:29;6.77;;;5.00;;
1885;SDS011;943;51.568;6.998;2023-04-15T09:32:59;7.13;;;4.93;;
1885;SDS011;943;51.568;6.998;2023-04-15T09:35:34;6.47;;;5.43;;
1885;SDS011;943;51.568;6.998;2023-04-15T09:38:06;7.10;;;4.30;;
1885;SDS011;943;51.568;6.998;2023-04-15T09:40:36;5.63;;;3.87;;
1885;SDS011;943;51.568;6.998;2023-04-15T09:43:08;7.03;;;4.10;;
1885;SDS011;943;51.568;6.998;2023-04-15T09:45:40;6.20;;;4.90;;
1885;SDS011;943;51.568;6.998;2023-04-15T09:48:23;8.27;;;5.23;;
1885;SDS011;943;51.568;6.998;2023-04-15T09:50:56;9.27;;;5.07;;
1885;SDS011;943;51.568;6.998;2023-04-15T09:53:27;6.80;;;5.20;;
1885;SDS011;943;51.568;6.998;2023-04-15T09:55:58;7.80;;;5.40;;
1885;SDS011;943;51.568;6.998;2023-04-15T09:58:29;6.67;;;5.50;;
1885;SDS011;943;51.568;6.998;2023-04-15T10:01:03;7.30;;;5.67;;
1885;SDS011;943;51.568;6.998;2023-04-15T10:03:34;8.80;;;5.97;;
1885;SDS011;943;51.568;6.998;2023-04-15T10:06:07;8.63;;;6.90;;
1885;SDS011;943;51.568;6.998;2023-04-15T10:08:36;10.53;;;7.30;;
1885;SDS011;943;51.568;6.998;2023-04-15T10:11:05;10.90;;;7.70;;
1885;SDS011;943;51.568;6.998;2023-04-15T10:13:34;10.50;;;6.77;;
1885;SDS011;943;51.568;6.998;2023-04-15T10:16:11;9.70;;;7.10;;
1885;SDS011;943;51.568;6.998;2023-04-15T10:18:45;7.80;;;6.73;;
1885;SDS011;943;51.568;6.998;2023-04-15T10:21:21;7.93;;;6.43;;
1885;SDS011;943;51.568;6.998;2023-04-15T10:23:50;10.97;;;7.17;;
1885;SDS011;943;51.568;6.998;2023-04-15T10:26:19;9.07;;;7.00;;
1885;SDS011;943;51.568;6.998;2023-04-15T10:28:47;10.40;;;6.93;;
1885;SDS011;943;51.568;6.998;2023-04-15T10:31:17;10.67;;;7.43;;
1885;SDS011;943;51.568;6.998;2023-04-15T10:33:46;9.63;;;6.07;;
1885;SDS011;943;51.568;6.998;2023-04-15T10:36:22;8.33;;;5.90;;
1885;SDS011;943;51.568;6.998;2023-04-15T10:38:58;8.57;;;5.53;;
1885;SDS011;943;51.568;6.998;2023-04-15T10:41:37;7.60;;;4.87;;
1885;SDS011;943;51.568;6.998;2023-04-15T10:44:13;6.47;;;4.77;;
1885;SDS011;943;51.568;6.998;2023-04-15T10:46:46;6.93;;;4.93;;
1885;SDS011;943;51.568;6.998;2023-04-15T10:49:25;8.27;;;5.60;;
1885;SDS011;943;51.568;6.998;2023-04-15T10:52:09;7.60;;;6.00;;
1885;SDS011;943;51.568;6.998;2023-04-15T10:55:00;7.50;;;5.47;;
1885;SDS011;943;51.568;6.998;2023-04-15T10:58:00;6.73;;;5.40;;
1885;SDS011;943;51.568;6.998;2023-04-15T11:00:36;7.47;;;4.70;;
1885;SDS011;943;51.568;6.998;2023-04-15T11:03:14;7.37;;;5.40;;
1885;SDS011;943;51.568;6.998;2023-04-15T11:06:07;7.53;;;5.47;;
1885;SDS011;943;51.568;6.998;2023-04-15T11:08:57;8.10;;;5.30;;
1885;SDS011;943;51.568;6.998;2023-04-15T11:14:43;6.60;;;5.07;;
1885;SDS011;943;51.568;6.998;2023-04-15T11:17:26;6.00;;;4.53;;
1885;SDS011;943;51.568;6.998;2023-04-15T11:19:58;6.30;;;4.73;;
1885;SDS011;943;51.568;6.998;2023-04-15T11:22:27;8.77;;;5.60;;
1885;SDS011;943;51.568;6.998;2023-04-15T11:24:55;8.53;;;6.43;;
1885;SDS011;943;51.568;6.998;2023-04-15T11:27:24;7.80;;;6.10;;
1885;SDS011;943;51.568;6.998;2023-04-15T11:29:52;6.30;;;4.83;;
1885;SDS011;943;51.568;6.998;2023-04-15T11:32:40;6.87;;;5.10;;
1885;SDS011;943;51.568;6.998;2023-04-15T11:35:14;8.07;;;5.60;;
1885;SDS011;943;51.568;6.998;2023-04-15T11:37:57;10.10;;;4.83;;
1885;SDS011;943;51.568;6.998;2023-04-15T11:40:40;6.50;;;5.03;;
1885;SDS011;943;51.568;6.998;2023-04-15T11:43:24;13.73;;;7.27;;
1885;SDS011;943;51.568;6.998;2023-04-15T11:46:03;7.00;;;5.40;;
1885;SDS011;943;51.568;6.998;2023-04-15T11:48:31;5.63;;;4.43;;
1885;SDS011;943;51.568;6.998;2023-04-15T11:51:03;9.03;;;5.43;;
1885;SDS011;943;51.568;6.998;2023-04-15T11:53:37;8.07;;;5.10;;
1885;SDS011;943;51.568;6.998;2023-04-15T11:56:21;7.70;;;4.87;;
1885;SDS011;943;51.568;6.998;2023-04-15T11:58:53;5.97;;;4.87;;
1885;SDS011;943;51.568;6.998;2023-04-15T12:01:32;6.43;;;4.90;;
1885;SDS011;943;51.568;6.998;2023-04-15T12:04:11;11.20;;;6.47;;
1885;SDS011;943;51.568;6.998;2023-04-15T12:06:52;8.83;;;5.87;;
1885;SDS011;943;51.568;6.998;2023-04-15T12:09:36;7.03;;;4.77;;
1885;SDS011;943;51.568;6.998;2023-04-15T12:12:12;7.93;;;5.60;;
1885;SDS011;943;51.568;6.998;2023-04-15T12:14:50;8.07;;;4.37;;
1885;SDS011;943;51.568;6.998;2023-04-15T12:17:27;7.10;;;4.57;;
1885;SDS011;943;51.568;6.998;2023-04-15T12:20:24;6.30;;;3.87;;
1885;SDS011;943;51.568;6.998;2023-04-15T12:22:52;6.63;;;4.70;;
1885;SDS011;943;51.568;6.998;2023-04-15T12:25:34;5.33;;;4.23;;
1885;SDS011;943;51.568;6.998;2023-04-15T12:28:09;8.07;;;4.57;;
1885;SDS011;943;51.568;6.998;2023-04-15T12:30:47;7.13;;;4.10;;
1885;SDS011;943;51.568;6.998;2023-04-15T12:33:20;6.27;;;4.13;;
1885;SDS011;943;51.568;6.998;2023-04-15T12:35:47;8.23;;;4.90;;
1885;SDS011;943;51.568;6.998;2023-04-15T12:38:15;6.53;;;4.50;;
1885;SDS011;943;51.568;6.998;2023-04-15T12:40:45;8.27;;;5.40;;
1885;SDS011;943;51.568;6.998;2023-04-15T12:43:13;6.43;;;5.43;;
1885;SDS011;943;51.568;6.998;2023-04-15T12:45:41;6.90;;;4.50;;
1885;SDS011;943;51.568;6.998;2023-04-15T12:48:09;6.57;;;4.20;;
1885;SDS011;943;51.568;6.998;2023-04-15T12:50:36;5.77;;;4.20;;
1885;SDS011;943;51.568;6.998;2023-04-15T12:53:04;7.23;;;4.60;;
1885;SDS011;943;51.568;6.998;2023-04-15T12:55:32;7.10;;;5.33;;
1885;SDS011;943;51.568;6.998;2023-04-15T12:58:00;7.87;;;5.83;;
1885;SDS011;943;51.568;6.998;2023-04-15T13:00:28;6.67;;;5.00;;
1885;SDS011;943;51.568;6.998;2023-04-15T13:02:56;6.03;;;4.77;;
1885;SDS011;943;51.568;6.998;2023-04-15T13:05:23;7.27;;;5.10;;
1885;SDS011;943;51.568;6.998;2023-04-15T13:07:51;9.00;;;5.13;;
1885;SDS011;943;51.568;6.998;2023-04-15T13:10:19;6.83;;;5.60;;
1885;SDS011;943;51.568;6.998;2023-04-15T13:12:53;6.60;;;4.63;;
1885;SDS011;943;51.568;6.998;2023-04-15T13:15:22;5.13;;;3.90;;
1885;SDS011;943;51.568;6.998;2023-04-15T13:17:51;7.83;;;5.00;;
1885;SDS011;943;51.568;6.998;2023-04-15T13:20:19;6.67;;;3.97;;
1885;SDS011;943;51.568;6.998;2023-04-15T13:22:47;6.07;;;4.23;;
1885;SDS011;943;51.568;6.998;2023-04-15T13:25:15;6.50;;;4.57;;
1885;SDS011;943;51.568;6.998;2023-04-15T13:27:43;6.77;;;4.43;;
1885;SDS011;943;51.568;6.998;2023-04-15T13:30:11;7.30;;;4.70;;
1885;SDS011;943;51.568;6.998;2023-04-15T13:32:39;5.43;;;4.37;;
1885;SDS011;943;51.568;6.998;2023-04-15T13:35:07;6.97;;;4.30;;
1885;SDS011;943;51.568;6.998;2023-04-15T13:37:35;7.83;;;4.53;;
1885;SDS011;943;51.568;6.998;2023-04-15T13:40:03;9.00;;;4.40;;
1885;SDS011;943;51.568;6.998;2023-04-15T13:42:32;5.80;;;4.93;;
1885;SDS011;943;51.568;6.998;2023-04-15T13:45:01;7.83;;;5.23;;
1885;SDS011;943;51.568;6.998;2023-04-15T13:47:28;6.70;;;5.97;;
1885;SDS011;943;51.568;6.998;2023-04-15T13:49:56;7.00;;;4.60;;
1885;SDS011;943;51.568;6.998;2023-04-15T13:52:24;6.90;;;5.00;;
1885;SDS011;943;51.568;6.998;2023-04-15T13:54:52;11.53;;;4.97;;
1885;SDS011;943;51.568;6.998;2023-04-15T13:57:40;6.73;;;5.43;;
1885;SDS011;943;51.568;6.998;2023-04-15T14:00:08;7.20;;;5.53;;
1885;SDS011;943;51.568;6.998;2023-04-15T14:02:38;6.77;;;4.67;;
1885;SDS011;943;51.568;6.998;2023-04-15T14:05:08;8.33;;;6.00;;
1885;SDS011;943;51.568;6.998;2023-04-15T14:07:37;7.40;;;6.20;;
1885;SDS011;943;51.568;6.998;2023-04-15T14:10:05;7.53;;;5.27;;
1885;SDS011;943;51.568;6.998;2023-04-15T14:12:34;7.00;;;4.73;;
1885;SDS011;943;51.568;6.998;2023-04-15T14:15:03;10.73;;;6.13;;
1885;SDS011;943;51.568;6.998;2023-04-15T14:17:33;6.77;;;5.30;;
1885;SDS011;943;51.568;6.998;2023-04-15T14:20:00;7.50;;;5.20;;
1885;SDS011;943;51.568;6.998;2023-04-15T14:22:29;9.10;;;5.30;;
1885;SDS011;943;51.568;6.998;2023-04-15T14:24:57;8.03;;;5.47;;
1885;SDS011;943;51.568;6.998;2023-04-15T14:27:25;6.47;;;4.80;;
1885;SDS011;943;51.568;6.998;2023-04-15T14:29:54;7.90;;;4.87;;
1885;SDS011;943;51.568;6.998;2023-04-15T14:32:25;6.93;;;5.47;;
1885;SDS011;943;51.568;6.998;2023-04-15T14:34:54;7.50;;;5.93;;
1885;SDS011;943;51.568;6.998;2023-04-15T14:37:22;7.33;;;5.20;;
1885;SDS011;943;51.568;6.998;2023-04-15T14:39:52;8.70;;;5.50;;
1885;SDS011;943;51.568;6.998;2023-04-15T14:42:22;9.37;;;6.37;;
1885;SDS011;943;51.568;6.998;2023-04-15T14:44:51;8.07;;;5.63;;
1885;SDS011;943;51.568;6.998;2023-04-15T14:47:21;12.37;;;5.87;;
1885;SDS011;943;51.568;6.998;2023-04-15T14:49:49;7.87;;;5.30;;
1885;SDS011;943;51.568;6.998;2023-04-15T14:52:17;5.80;;;4.93;;
1885;SDS011;943;51.568;6.998;2023-04-15T14:54:45;8.73;;;6.07;;
1885;SDS011;943;51.568;6.998;2023-04-15T14:57:13;7.57;;;5.10;;
1885;SDS011;943;51.568;6.998;2023-04-15T14:59:40;7.80;;;5.87;;
1885;SDS011;943;51.568;6.998;2023-04-15T15:02:08;8.07;;;5.13;;
1885;SDS011;943;51.568;6.998;2023-04-15T15:04:40;9.77;;;5.33;;
1885;SDS011;943;51.568;6.998;2023-04-15T15:07:08;8.30;;;6.03;;
1885;SDS011;943;51.568;6.998;2023-04-15T15:09:36;8.33;;;5.50;;
1885;SDS011;943;51.568;6.998;2023-04-15T15:12:04;6.70;;;5.40;;
1885;SDS011;943;51.568;6.998;2023-04-15T15:14:32;8.17;;;5.40;;
1885;SDS011;943;51.568;6.998;2023-04-15T15:17:00;9.60;;;6.43;;
1885;SDS011;943;51.568;6.998;2023-04-15T15:19:28;6.90;;;5.17;;
1885;SDS011;943;51.568;6.998;2023-04-15T15:21:56;7.63;;;5.43;;
1885;SDS011;943;51.568;6.998;2023-04-15T15:24:24;7.53;;;6.70;;
1885;SDS011;943;51.568;6.998;2023-04-15T15:26:52;7.60;;;5.17;;
1885;SDS011;943;51.568;6.998;2023-04-15T15:29:20;7.57;;;4.60;;
1885;SDS011;943;51.568;6.998;2023-04-15T15:31:48;8.00;;;6.27;;
1885;SDS011;943;51.568;6.998;2023-04-15T15:34:16;6.30;;;5.67;;
1885;SDS011;943;51.568;6.998;2023-04-15T15:36:44;7.00;;;5.20;;
1885;SDS011;943;51.568;6.998;2023-04-15T15:39:12;5.80;;;4.97;;
1885;SDS011;943;51.568;6.998;2023-04-15T15:41:39;10.20;;;4.80;;
1885;SDS011;943;51.568;6.998;2023-04-15T15:44:08;8.27;;;4.87;;
1885;SDS011;943;51.568;6.998;2023-04-15T15:46:36;6.77;;;5.20;;